Boncarbo, Colorado
Current Conditions -  °F | °C
As of 6:54 AM on Sunday 21 Dec 2014 (Local Time) from KTAD Reporting Station
Clear Clear  
Wind Chill: 20°   Ceiling: Unl
Heat Index: 31°   Visibility: 10mi
Dew Point: 17°   Wind: 15mph
Humidity: 57%   Direction: 250°WSW
Pressure: 29.8"   Gusts: NA
Location:  37.22°N, 104.7°W
Report Text: KTAD 211354Z AUTO 25013KT 10SM CLR M01/M08 A2980 RMK AO2 SLP096 T10061083
Loading
Personal Weather Stations






























Interactive Weather Map New forecast layout! Learn more

10-Day Weather Forecast

Advertisements
Track Severe Weather on mobile